sensor_id;sensor_type;location;lat;lon;timestamp;P1;durP1;ratioP1;P2;durP2;ratioP2
59824;SDS011;45703;50.898;6.054;2022-10-18T00:01:42;8.73;;;4.88;;
59824;SDS011;45703;50.898;6.054;2022-10-18T00:04:08;8.32;;;4.55;;
59824;SDS011;45703;50.898;6.054;2022-10-18T00:06:33;10.23;;;5.07;;
59824;SDS011;45703;50.898;6.054;2022-10-18T00:08:58;7.93;;;4.05;;
59824;SDS011;45703;50.898;6.054;2022-10-18T00:11:24;8.32;;;4.40;;
59824;SDS011;45703;50.898;6.054;2022-10-18T00:13:49;8.98;;;4.82;;
59824;SDS011;45703;50.898;6.054;2022-10-18T00:16:15;8.27;;;4.60;;
59824;SDS011;45703;50.898;6.054;2022-10-18T00:18:42;9.07;;;4.90;;
59824;SDS011;45703;50.898;6.054;2022-10-18T00:21:13;8.77;;;4.93;;
59824;SDS011;45703;50.898;6.054;2022-10-18T00:23:41;9.48;;;4.78;;
59824;SDS011;45703;50.898;6.054;2022-10-18T00:26:12;9.80;;;5.47;;
59824;SDS011;45703;50.898;6.054;2022-10-18T00:28:52;9.55;;;4.63;;
59824;SDS011;45703;50.898;6.054;2022-10-18T00:33:56;8.10;;;4.38;;
59824;SDS011;45703;50.898;6.054;2022-10-18T00:36:27;10.65;;;4.78;;
59824;SDS011;45703;50.898;6.054;2022-10-18T00:38:54;8.38;;;4.47;;
59824;SDS011;45703;50.898;6.054;2022-10-18T00:41:21;9.05;;;4.32;;
59824;SDS011;45703;50.898;6.054;2022-10-18T00:43:53;8.63;;;4.32;;
59824;SDS011;45703;50.898;6.054;2022-10-18T00:46:22;8.57;;;4.20;;
59824;SDS011;45703;50.898;6.054;2022-10-18T00:48:49;8.40;;;4.55;;
59824;SDS011;45703;50.898;6.054;2022-10-18T00:51:17;7.82;;;3.92;;
59824;SDS011;45703;50.898;6.054;2022-10-18T00:53:44;8.93;;;4.43;;
59824;SDS011;45703;50.898;6.054;2022-10-18T00:56:10;9.57;;;4.50;;
59824;SDS011;45703;50.898;6.054;2022-10-18T00:58:36;10.20;;;4.88;;
59824;SDS011;45703;50.898;6.054;2022-10-18T01:01:02;10.65;;;5.18;;
59824;SDS011;45703;50.898;6.054;2022-10-18T01:03:27;8.60;;;4.60;;
59824;SDS011;45703;50.898;6.054;2022-10-18T01:05:53;9.02;;;4.75;;
59824;SDS011;45703;50.898;6.054;2022-10-18T01:08:23;9.95;;;4.95;;
59824;SDS011;45703;50.898;6.054;2022-10-18T01:11:04;9.23;;;4.55;;
59824;SDS011;45703;50.898;6.054;2022-10-18T01:13:41;9.43;;;4.35;;
59824;SDS011;45703;50.898;6.054;2022-10-18T01:22:22;10.18;;;4.88;;
59824;SDS011;45703;50.898;6.054;2022-10-18T01:24:58;8.95;;;3.65;;
59824;SDS011;45703;50.898;6.054;2022-10-18T01:36:06;8.77;;;3.35;;
59824;SDS011;45703;50.898;6.054;2022-10-18T01:38:46;8.07;;;3.70;;
59824;SDS011;45703;50.898;6.054;2022-10-18T01:41:15;8.52;;;4.40;;
59824;SDS011;45703;50.898;6.054;2022-10-18T01:43:44;9.02;;;4.40;;
59824;SDS011;45703;50.898;6.054;2022-10-18T01:46:14;8.70;;;3.90;;
59824;SDS011;45703;50.898;6.054;2022-10-18T01:51:10;8.93;;;4.25;;
59824;SDS011;45703;50.898;6.054;2022-10-18T01:53:35;9.45;;;4.40;;
59824;SDS011;45703;50.898;6.054;2022-10-18T01:56:12;8.10;;;4.28;;
59824;SDS011;45703;50.898;6.054;2022-10-18T01:58:54;9.18;;;4.28;;
59824;SDS011;45703;50.898;6.054;2022-10-18T02:01:41;11.32;;;4.78;;
59824;SDS011;45703;50.898;6.054;2022-10-18T02:06:58;9.55;;;4.22;;
59824;SDS011;45703;50.898;6.054;2022-10-18T02:09:35;9.05;;;4.35;;
59824;SDS011;45703;50.898;6.054;2022-10-18T02:12:08;9.85;;;5.05;;
59824;SDS011;45703;50.898;6.054;2022-10-18T02:14:35;9.70;;;4.97;;
59824;SDS011;45703;50.898;6.054;2022-10-18T02:17:02;8.63;;;4.38;;
59824;SDS011;45703;50.898;6.054;2022-10-18T02:22:06;9.05;;;4.32;;
59824;SDS011;45703;50.898;6.054;2022-10-18T02:24:38;8.25;;;4.18;;
59824;SDS011;45703;50.898;6.054;2022-10-18T02:27:08;9.32;;;4.22;;
59824;SDS011;45703;50.898;6.054;2022-10-18T02:29:34;8.82;;;4.28;;
59824;SDS011;45703;50.898;6.054;2022-10-18T02:34:48;9.32;;;4.47;;
59824;SDS011;45703;50.898;6.054;2022-10-18T02:37:21;9.13;;;4.25;;
59824;SDS011;45703;50.898;6.054;2022-10-18T02:39:48;8.63;;;3.65;;
59824;SDS011;45703;50.898;6.054;2022-10-18T02:42:15;7.82;;;3.88;;
59824;SDS011;45703;50.898;6.054;2022-10-18T02:44:41;7.97;;;3.85;;
59824;SDS011;45703;50.898;6.054;2022-10-18T02:47:07;8.25;;;3.97;;
59824;SDS011;45703;50.898;6.054;2022-10-18T02:49:34;8.10;;;3.75;;
59824;SDS011;45703;50.898;6.054;2022-10-18T02:52:00;9.10;;;3.85;;
59824;SDS011;45703;50.898;6.054;2022-10-18T02:54:25;8.05;;;3.63;;
59824;SDS011;45703;50.898;6.054;2022-10-18T02:56:51;7.70;;;3.53;;
59824;SDS011;45703;50.898;6.054;2022-10-18T02:59:16;8.48;;;3.72;;
59824;SDS011;45703;50.898;6.054;2022-10-18T03:01:42;7.38;;;3.22;;
59824;SDS011;45703;50.898;6.054;2022-10-18T03:04:07;8.13;;;3.42;;
59824;SDS011;45703;50.898;6.054;2022-10-18T03:06:33;7.60;;;3.65;;
59824;SDS011;45703;50.898;6.054;2022-10-18T03:09:00;6.88;;;2.95;;
59824;SDS011;45703;50.898;6.054;2022-10-18T03:11:26;7.97;;;3.80;;
59824;SDS011;45703;50.898;6.054;2022-10-18T03:13:51;7.20;;;3.58;;
59824;SDS011;45703;50.898;6.054;2022-10-18T03:16:17;7.70;;;4.03;;
59824;SDS011;45703;50.898;6.054;2022-10-18T03:18:42;8.15;;;3.95;;
59824;SDS011;45703;50.898;6.054;2022-10-18T03:21:08;7.90;;;3.90;;
59824;SDS011;45703;50.898;6.054;2022-10-18T03:23:34;8.77;;;4.25;;
59824;SDS011;45703;50.898;6.054;2022-10-18T03:25:59;7.75;;;3.83;;
59824;SDS011;45703;50.898;6.054;2022-10-18T03:28:25;8.85;;;4.18;;
59824;SDS011;45703;50.898;6.054;2022-10-18T03:30:50;7.65;;;3.65;;
59824;SDS011;45703;50.898;6.054;2022-10-18T03:33:16;10.23;;;4.18;;
59824;SDS011;45703;50.898;6.054;2022-10-18T03:35:42;9.48;;;4.20;;
59824;SDS011;45703;50.898;6.054;2022-10-18T03:38:07;8.10;;;4.10;;
59824;SDS011;45703;50.898;6.054;2022-10-18T03:40:32;8.18;;;3.95;;
59824;SDS011;45703;50.898;6.054;2022-10-18T03:42:58;8.38;;;3.97;;
59824;SDS011;45703;50.898;6.054;2022-10-18T03:45:23;8.73;;;4.28;;
59824;SDS011;45703;50.898;6.054;2022-10-18T03:47:48;9.05;;;4.68;;
59824;SDS011;45703;50.898;6.054;2022-10-18T03:50:14;8.38;;;4.28;;
59824;SDS011;45703;50.898;6.054;2022-10-18T03:52:39;7.97;;;3.70;;
59824;SDS011;45703;50.898;6.054;2022-10-18T03:55:05;9.88;;;3.80;;
59824;SDS011;45703;50.898;6.054;2022-10-18T03:57:31;8.75;;;3.83;;
59824;SDS011;45703;50.898;6.054;2022-10-18T03:59:56;7.30;;;3.38;;
59824;SDS011;45703;50.898;6.054;2022-10-18T04:02:21;9.13;;;4.28;;
59824;SDS011;45703;50.898;6.054;2022-10-18T04:04:47;9.20;;;4.50;;
59824;SDS011;45703;50.898;6.054;2022-10-18T04:07:12;11.23;;;4.97;;
59824;SDS011;45703;50.898;6.054;2022-10-18T04:09:37;9.40;;;4.65;;
59824;SDS011;45703;50.898;6.054;2022-10-18T04:12:03;8.68;;;4.18;;
59824;SDS011;45703;50.898;6.054;2022-10-18T04:14:28;9.55;;;5.28;;
59824;SDS011;45703;50.898;6.054;2022-10-18T04:16:54;10.82;;;5.60;;
59824;SDS011;45703;50.898;6.054;2022-10-18T04:19:19;10.80;;;5.68;;
59824;SDS011;45703;50.898;6.054;2022-10-18T04:21:44;12.43;;;6.82;;
59824;SDS011;45703;50.898;6.054;2022-10-18T04:24:10;13.32;;;6.80;;
59824;SDS011;45703;50.898;6.054;2022-10-18T04:26:35;14.85;;;7.13;;
59824;SDS011;45703;50.898;6.054;2022-10-18T04:29:00;15.13;;;8.10;;
59824;SDS011;45703;50.898;6.054;2022-10-18T04:31:26;15.27;;;8.93;;
59824;SDS011;45703;50.898;6.054;2022-10-18T04:33:51;14.95;;;8.10;;
59824;SDS011;45703;50.898;6.054;2022-10-18T04:36:16;17.77;;;9.38;;
59824;SDS011;45703;50.898;6.054;2022-10-18T04:38:42;15.90;;;9.73;;
59824;SDS011;45703;50.898;6.054;2022-10-18T04:41:07;18.45;;;11.45;;
59824;SDS011;45703;50.898;6.054;2022-10-18T04:43:33;20.63;;;12.63;;
59824;SDS011;45703;50.898;6.054;2022-10-18T04:45:58;24.10;;;13.23;;
59824;SDS011;45703;50.898;6.054;2022-10-18T04:48:24;20.98;;;13.30;;
59824;SDS011;45703;50.898;6.054;2022-10-18T04:50:49;21.30;;;12.88;;
59824;SDS011;45703;50.898;6.054;2022-10-18T04:53:16;23.17;;;15.25;;
59824;SDS011;45703;50.898;6.054;2022-10-18T04:55:42;26.60;;;16.90;;
59824;SDS011;45703;50.898;6.054;2022-10-18T04:58:14;26.75;;;15.18;;
59824;SDS011;45703;50.898;6.054;2022-10-18T05:00:41;24.08;;;16.40;;
59824;SDS011;45703;50.898;6.054;2022-10-18T05:03:07;24.80;;;16.58;;
59824;SDS011;45703;50.898;6.054;2022-10-18T05:05:33;29.50;;;17.88;;
59824;SDS011;45703;50.898;6.054;2022-10-18T05:07:59;28.90;;;17.05;;
59824;SDS011;45703;50.898;6.054;2022-10-18T05:10:24;30.52;;;18.65;;
59824;SDS011;45703;50.898;6.054;2022-10-18T05:12:50;31.60;;;18.77;;
59824;SDS011;45703;50.898;6.054;2022-10-18T05:15:15;33.13;;;20.08;;
59824;SDS011;45703;50.898;6.054;2022-10-18T05:17:40;28.25;;;18.08;;
59824;SDS011;45703;50.898;6.054;2022-10-18T05:20:06;27.85;;;18.05;;
59824;SDS011;45703;50.898;6.054;2022-10-18T05:22:31;29.40;;;19.10;;
59824;SDS011;45703;50.898;6.054;2022-10-18T05:24:57;30.92;;;19.25;;
59824;SDS011;45703;50.898;6.054;2022-10-18T05:27:22;32.00;;;19.60;;
59824;SDS011;45703;50.898;6.054;2022-10-18T05:29:47;32.00;;;19.23;;
59824;SDS011;45703;50.898;6.054;2022-10-18T05:32:13;30.23;;;18.45;;
59824;SDS011;45703;50.898;6.054;2022-10-18T05:34:38;31.20;;;19.23;;
59824;SDS011;45703;50.898;6.054;2022-10-18T05:37:03;31.77;;;19.75;;
59824;SDS011;45703;50.898;6.054;2022-10-18T05:39:29;32.65;;;20.05;;
59824;SDS011;45703;50.898;6.054;2022-10-18T05:41:54;26.58;;;16.83;;
59824;SDS011;45703;50.898;6.054;2022-10-18T05:44:20;27.88;;;17.80;;
59824;SDS011;45703;50.898;6.054;2022-10-18T05:46:45;29.83;;;18.80;;
59824;SDS011;45703;50.898;6.054;2022-10-18T05:49:11;28.02;;;17.67;;
59824;SDS011;45703;50.898;6.054;2022-10-18T05:51:37;28.73;;;18.40;;
59824;SDS011;45703;50.898;6.054;2022-10-18T05:54:02;31.00;;;17.48;;
59824;SDS011;45703;50.898;6.054;2022-10-18T05:56:28;30.13;;;19.27;;
59824;SDS011;45703;50.898;6.054;2022-10-18T05:58:53;27.17;;;16.65;;
59824;SDS011;45703;50.898;6.054;2022-10-18T06:01:18;30.08;;;18.25;;
59824;SDS011;45703;50.898;6.054;2022-10-18T06:03:44;30.98;;;18.27;;
59824;SDS011;45703;50.898;6.054;2022-10-18T06:06:10;31.27;;;19.08;;
59824;SDS011;45703;50.898;6.054;2022-10-18T06:08:37;29.55;;;17.40;;
59824;SDS011;45703;50.898;6.054;2022-10-18T06:11:07;26.38;;;17.17;;
59824;SDS011;45703;50.898;6.054;2022-10-18T06:13:44;27.00;;;17.73;;
59824;SDS011;45703;50.898;6.054;2022-10-18T06:16:12;31.92;;;19.60;;
59824;SDS011;45703;50.898;6.054;2022-10-18T06:18:38;30.02;;;17.67;;
59824;SDS011;45703;50.898;6.054;2022-10-18T06:21:04;30.58;;;18.65;;
59824;SDS011;45703;50.898;6.054;2022-10-18T06:23:29;33.50;;;19.88;;
59824;SDS011;45703;50.898;6.054;2022-10-18T06:26:01;33.38;;;19.58;;
59824;SDS011;45703;50.898;6.054;2022-10-18T06:28:29;37.03;;;21.33;;
59824;SDS011;45703;50.898;6.054;2022-10-18T06:30:55;35.22;;;20.25;;
59824;SDS011;45703;50.898;6.054;2022-10-18T06:33:21;35.47;;;21.70;;
59824;SDS011;45703;50.898;6.054;2022-10-18T06:35:53;34.15;;;20.73;;
59824;SDS011;45703;50.898;6.054;2022-10-18T06:38:20;35.45;;;20.85;;
59824;SDS011;45703;50.898;6.054;2022-10-18T06:40:46;32.65;;;18.88;;
59824;SDS011;45703;50.898;6.054;2022-10-18T06:43:12;36.33;;;19.23;;
59824;SDS011;45703;50.898;6.054;2022-10-18T06:45:37;35.45;;;20.48;;
59824;SDS011;45703;50.898;6.054;2022-10-18T06:48:03;33.83;;;19.85;;
59824;SDS011;45703;50.898;6.054;2022-10-18T06:50:28;32.20;;;20.10;;
59824;SDS011;45703;50.898;6.054;2022-10-18T06:52:54;39.05;;;20.65;;
59824;SDS011;45703;50.898;6.054;2022-10-18T06:55:19;35.50;;;20.73;;
59824;SDS011;45703;50.898;6.054;2022-10-18T06:57:44;34.92;;;20.38;;
59824;SDS011;45703;50.898;6.054;2022-10-18T07:00:10;39.40;;;21.17;;
59824;SDS011;45703;50.898;6.054;2022-10-18T07:02:36;40.20;;;22.00;;
59824;SDS011;45703;50.898;6.054;2022-10-18T07:05:05;42.45;;;21.42;;
59824;SDS011;45703;50.898;6.054;2022-10-18T07:07:31;43.80;;;23.65;;
59824;SDS011;45703;50.898;6.054;2022-10-18T07:09:56;44.22;;;23.73;;
59824;SDS011;45703;50.898;6.054;2022-10-18T07:12:21;43.78;;;23.40;;
59824;SDS011;45703;50.898;6.054;2022-10-18T07:14:47;39.08;;;21.20;;
59824;SDS011;45703;50.898;6.054;2022-10-18T07:17:12;42.15;;;23.35;;
59824;SDS011;45703;50.898;6.054;2022-10-18T07:19:38;41.65;;;22.02;;
59824;SDS011;45703;50.898;6.054;2022-10-18T07:22:03;40.08;;;22.38;;
59824;SDS011;45703;50.898;6.054;2022-10-18T07:24:29;43.92;;;22.40;;
59824;SDS011;45703;50.898;6.054;2022-10-18T07:26:54;40.92;;;22.65;;
59824;SDS011;45703;50.898;6.054;2022-10-18T07:29:19;44.53;;;22.95;;
59824;SDS011;45703;50.898;6.054;2022-10-18T07:31:45;53.50;;;26.80;;
59824;SDS011;45703;50.898;6.054;2022-10-18T07:34:13;51.42;;;26.48;;
59824;SDS011;45703;50.898;6.054;2022-10-18T07:36:39;52.30;;;27.38;;
59824;SDS011;45703;50.898;6.054;2022-10-18T07:39:05;52.33;;;27.23;;
59824;SDS011;45703;50.898;6.054;2022-10-18T07:41:30;49.92;;;25.88;;
59824;SDS011;45703;50.898;6.054;2022-10-18T07:43:58;48.75;;;23.90;;
59824;SDS011;45703;50.898;6.054;2022-10-18T07:46:23;46.83;;;23.98;;
59824;SDS011;45703;50.898;6.054;2022-10-18T07:48:49;44.97;;;22.60;;
59824;SDS011;45703;50.898;6.054;2022-10-18T07:51:15;47.97;;;24.05;;
59824;SDS011;45703;50.898;6.054;2022-10-18T07:53:42;41.53;;;22.67;;
59824;SDS011;45703;50.898;6.054;2022-10-18T07:56:09;46.65;;;22.77;;
59824;SDS011;45703;50.898;6.054;2022-10-18T07:58:40;42.00;;;22.70;;
59824;SDS011;45703;50.898;6.054;2022-10-18T08:01:06;47.67;;;24.25;;
59824;SDS011;45703;50.898;6.054;2022-10-18T08:03:33;46.58;;;23.05;;
59824;SDS011;45703;50.898;6.054;2022-10-18T08:05:59;43.05;;;22.83;;
59824;SDS011;45703;50.898;6.054;2022-10-18T08:08:26;43.13;;;22.65;;
59824;SDS011;45703;50.898;6.054;2022-10-18T08:10:52;54.55;;;27.05;;
59824;SDS011;45703;50.898;6.054;2022-10-18T08:13:18;47.65;;;22.50;;
59824;SDS011;45703;50.898;6.054;2022-10-18T08:15:44;47.55;;;23.85;;
59824;SDS011;45703;50.898;6.054;2022-10-18T08:18:09;45.40;;;22.13;;
59824;SDS011;45703;50.898;6.054;2022-10-18T08:20:35;53.42;;;24.60;;
59824;SDS011;45703;50.898;6.054;2022-10-18T08:23:02;53.22;;;24.88;;
59824;SDS011;45703;50.898;6.054;2022-10-18T08:25:28;55.45;;;26.52;;
59824;SDS011;45703;50.898;6.054;2022-10-18T08:27:54;43.92;;;23.48;;
59824;SDS011;45703;50.898;6.054;2022-10-18T08:30:19;43.22;;;22.70;;
59824;SDS011;45703;50.898;6.054;2022-10-18T08:32:47;44.95;;;22.88;;
59824;SDS011;45703;50.898;6.054;2022-10-18T08:35:12;45.42;;;24.65;;
59824;SDS011;45703;50.898;6.054;2022-10-18T08:37:37;44.03;;;23.33;;
59824;SDS011;45703;50.898;6.054;2022-10-18T08:40:04;46.03;;;24.15;;
59824;SDS011;45703;50.898;6.054;2022-10-18T08:42:37;44.58;;;21.52;;
59824;SDS011;45703;50.898;6.054;2022-10-18T08:45:22;44.95;;;22.17;;
59824;SDS011;45703;50.898;6.054;2022-10-18T08:47:50;41.92;;;22.38;;
59824;SDS011;45703;50.898;6.054;2022-10-18T08:55:19;43.22;;;21.63;;
59824;SDS011;45703;50.898;6.054;2022-10-18T08:57:49;40.72;;;20.88;;
59824;SDS011;45703;50.898;6.054;2022-10-18T09:00:19;38.88;;;20.80;;
59824;SDS011;45703;50.898;6.054;2022-10-18T09:02:54;38.50;;;20.67;;
59824;SDS011;45703;50.898;6.054;2022-10-18T09:11:09;37.33;;;20.13;;
59824;SDS011;45703;50.898;6.054;2022-10-18T09:22:54;38.45;;;19.52;;
59824;SDS011;45703;50.898;6.054;2022-10-18T09:26:06;39.42;;;20.58;;
59824;SDS011;45703;50.898;6.054;2022-10-18T09:30:59;41.97;;;21.40;;
59824;SDS011;45703;50.898;6.054;2022-10-18T09:36:33;43.15;;;21.27;;
59824;SDS011;45703;50.898;6.054;2022-10-18T09:39:12;41.40;;;22.70;;
59824;SDS011;45703;50.898;6.054;2022-10-18T09:41:44;40.10;;;21.05;;
59824;SDS011;45703;50.898;6.054;2022-10-18T09:46:44;36.80;;;21.20;;
59824;SDS011;45703;50.898;6.054;2022-10-18T09:49:34;37.40;;;20.17;;
59824;SDS011;45703;50.898;6.054;2022-10-18T09:52:06;37.22;;;19.98;;
59824;SDS011;45703;50.898;6.054;2022-10-18T09:54:56;38.10;;;21.23;;
59824;SDS011;45703;50.898;6.054;2022-10-18T09:57:26;33.03;;;18.88;;
59824;SDS011;45703;50.898;6.054;2022-10-18T09:59:57;37.95;;;21.05;;
59824;SDS011;45703;50.898;6.054;2022-10-18T10:02:25;36.22;;;20.17;;
59824;SDS011;45703;50.898;6.054;2022-10-18T10:04:51;36.97;;;20.77;;
59824;SDS011;45703;50.898;6.054;2022-10-18T10:10:18;39.05;;;21.20;;
59824;SDS011;45703;50.898;6.054;2022-10-18T10:12:46;37.72;;;20.23;;
59824;SDS011;45703;50.898;6.054;2022-10-18T10:15:19;36.13;;;21.08;;
59824;SDS011;45703;50.898;6.054;2022-10-18T10:23:15;37.83;;;22.05;;
59824;SDS011;45703;50.898;6.054;2022-10-18T10:26:05;43.00;;;23.27;;
59824;SDS011;45703;50.898;6.054;2022-10-18T10:28:45;37.13;;;19.45;;
59824;SDS011;45703;50.898;6.054;2022-10-18T10:31:26;34.72;;;20.08;;
59824;SDS011;45703;50.898;6.054;2022-10-18T10:34:03;37.47;;;20.40;;
59824;SDS011;45703;50.898;6.054;2022-10-18T10:36:46;35.58;;;19.92;;
59824;SDS011;45703;50.898;6.054;2022-10-18T10:39:13;38.25;;;19.65;;
59824;SDS011;45703;50.898;6.054;2022-10-18T10:41:44;34.23;;;18.47;;
59824;SDS011;45703;50.898;6.054;2022-10-18T10:44:19;35.90;;;20.40;;
59824;SDS011;45703;50.898;6.054;2022-10-18T10:46:48;35.35;;;19.52;;
59824;SDS011;45703;50.898;6.054;2022-10-18T10:49:18;36.33;;;19.65;;
59824;SDS011;45703;50.898;6.054;2022-10-18T10:51:44;39.72;;;21.70;;
59824;SDS011;45703;50.898;6.054;2022-10-18T10:54:14;41.08;;;21.95;;
59824;SDS011;45703;50.898;6.054;2022-10-18T10:59:42;39.50;;;21.15;;
59824;SDS011;45703;50.898;6.054;2022-10-18T11:04:38;37.75;;;20.42;;
59824;SDS011;45703;50.898;6.054;2022-10-18T11:18:19;39.03;;;20.33;;
59824;SDS011;45703;50.898;6.054;2022-10-18T11:20:49;36.25;;;21.05;;
59824;SDS011;45703;50.898;6.054;2022-10-18T11:23:20;33.25;;;19.30;;
59824;SDS011;45703;50.898;6.054;2022-10-18T11:31:11;36.28;;;20.02;;
59824;SDS011;45703;50.898;6.054;2022-10-18T11:33:45;35.75;;;20.73;;
59824;SDS011;45703;50.898;6.054;2022-10-18T11:42:34;35.70;;;19.85;;
59824;SDS011;45703;50.898;6.054;2022-10-18T11:48:20;32.10;;;19.00;;
59824;SDS011;45703;50.898;6.054;2022-10-18T12:01:31;29.08;;;17.92;;
59824;SDS011;45703;50.898;6.054;2022-10-18T12:04:11;27.77;;;16.30;;
59824;SDS011;45703;50.898;6.054;2022-10-18T12:06:42;28.50;;;15.97;;
59824;SDS011;45703;50.898;6.054;2022-10-18T12:12:05;24.92;;;14.88;;
59824;SDS011;45703;50.898;6.054;2022-10-18T12:14:34;23.42;;;15.02;;
59824;SDS011;45703;50.898;6.054;2022-10-18T12:17:03;22.90;;;13.10;;
59824;SDS011;45703;50.898;6.054;2022-10-18T12:19:36;21.75;;;12.77;;
59824;SDS011;45703;50.898;6.054;2022-10-18T12:22:22;22.75;;;13.65;;
59824;SDS011;45703;50.898;6.054;2022-10-18T12:24:53;24.40;;;14.23;;
59824;SDS011;45703;50.898;6.054;2022-10-18T12:27:31;22.15;;;12.77;;
59824;SDS011;45703;50.898;6.054;2022-10-18T12:30:13;23.95;;;14.60;;
59824;SDS011;45703;50.898;6.054;2022-10-18T12:33:00;23.20;;;13.35;;
59824;SDS011;45703;50.898;6.054;2022-10-18T12:35:45;27.42;;;14.88;;
59824;SDS011;45703;50.898;6.054;2022-10-18T12:38:35;23.80;;;13.32;;
59824;SDS011;45703;50.898;6.054;2022-10-18T12:41:05;23.83;;;13.57;;
59824;SDS011;45703;50.898;6.054;2022-10-18T12:43:32;24.02;;;13.23;;
59824;SDS011;45703;50.898;6.054;2022-10-18T12:46:03;20.52;;;12.57;;
59824;SDS011;45703;50.898;6.054;2022-10-18T12:48:37;20.08;;;11.15;;
59824;SDS011;45703;50.898;6.054;2022-10-18T12:51:17;20.52;;;12.05;;
59824;SDS011;45703;50.898;6.054;2022-10-18T12:53:48;21.13;;;12.25;;
59824;SDS011;45703;50.898;6.054;2022-10-18T12:56:37;21.95;;;11.98;;
59824;SDS011;45703;50.898;6.054;2022-10-18T13:09:41;22.65;;;12.73;;
59824;SDS011;45703;50.898;6.054;2022-10-18T13:15:02;23.13;;;14.88;;
59824;SDS011;45703;50.898;6.054;2022-10-18T13:26:00;22.75;;;14.02;;
59824;SDS011;45703;50.898;6.054;2022-10-18T13:28:45;25.48;;;14.05;;
59824;SDS011;45703;50.898;6.054;2022-10-18T13:34:42;26.40;;;16.40;;
59824;SDS011;45703;50.898;6.054;2022-10-18T13:39:34;25.20;;;15.20;;
59824;SDS011;45703;50.898;6.054;2022-10-18T13:44:32;22.48;;;14.23;;
59824;SDS011;45703;50.898;6.054;2022-10-18T13:55:30;22.42;;;12.07;;
59824;SDS011;45703;50.898;6.054;2022-10-18T14:03:25;25.95;;;12.95;;
59824;SDS011;45703;50.898;6.054;2022-10-18T14:13:23;25.80;;;14.00;;
59824;SDS011;45703;50.898;6.054;2022-10-18T14:15:53;20.35;;;12.13;;
59824;SDS011;45703;50.898;6.054;2022-10-18T14:18:26;24.85;;;14.15;;
59824;SDS011;45703;50.898;6.054;2022-10-18T14:20:59;20.83;;;12.30;;
59824;SDS011;45703;50.898;6.054;2022-10-18T14:24:02;27.10;;;13.45;;
59824;SDS011;45703;50.898;6.054;2022-10-18T14:26:20;22.38;;;12.40;;
59824;SDS011;45703;50.898;6.054;2022-10-18T14:29:01;22.98;;;12.98;;
59824;SDS011;45703;50.898;6.054;2022-10-18T14:31:30;25.15;;;14.02;;
59824;SDS011;45703;50.898;6.054;2022-10-18T14:33:56;23.17;;;12.57;;
59824;SDS011;45703;50.898;6.054;2022-10-18T14:36:23;25.40;;;13.98;;
59824;SDS011;45703;50.898;6.054;2022-10-18T14:39:16;22.80;;;13.32;;
59824;SDS011;45703;50.898;6.054;2022-10-18T14:41:48;24.75;;;12.88;;
59824;SDS011;45703;50.898;6.054;2022-10-18T14:46:43;22.85;;;13.50;;
59824;SDS011;45703;50.898;6.054;2022-10-18T14:49:11;23.63;;;13.73;;
59824;SDS011;45703;50.898;6.054;2022-10-18T14:51:38;22.02;;;14.07;;
59824;SDS011;45703;50.898;6.054;2022-10-18T14:54:06;24.52;;;13.25;;
59824;SDS011;45703;50.898;6.054;2022-10-18T14:56:37;19.40;;;12.02;;
59824;SDS011;45703;50.898;6.054;2022-10-18T14:59:08;22.20;;;12.55;;
59824;SDS011;45703;50.898;6.054;2022-10-18T15:01:42;21.08;;;12.07;;
59824;SDS011;45703;50.898;6.054;2022-10-18T15:04:16;19.52;;;11.57;;
59824;SDS011;45703;50.898;6.054;2022-10-18T15:06:42;17.95;;;10.70;;
59824;SDS011;45703;50.898;6.054;2022-10-18T15:09:08;18.00;;;9.55;;
59824;SDS011;45703;50.898;6.054;2022-10-18T15:11:36;15.88;;;9.43;;
59824;SDS011;45703;50.898;6.054;2022-10-18T15:14:06;17.20;;;9.48;;
59824;SDS011;45703;50.898;6.054;2022-10-18T15:16:38;15.63;;;8.35;;
59824;SDS011;45703;50.898;6.054;2022-10-18T15:24:17;18.73;;;7.88;;
59824;SDS011;45703;50.898;6.054;2022-10-18T15:26:54;16.80;;;7.18;;
59824;SDS011;45703;50.898;6.054;2022-10-18T15:29:23;14.98;;;7.45;;
59824;SDS011;45703;50.898;6.054;2022-10-18T15:31:50;12.20;;;6.30;;
59824;SDS011;45703;50.898;6.054;2022-10-18T15:34:23;17.10;;;7.03;;
59824;SDS011;45703;50.898;6.054;2022-10-18T15:36:51;13.77;;;7.05;;
59824;SDS011;45703;50.898;6.054;2022-10-18T15:39:19;16.02;;;6.88;;
59824;SDS011;45703;50.898;6.054;2022-10-18T15:46:51;14.70;;;6.47;;
59824;SDS011;45703;50.898;6.054;2022-10-18T15:51:47;14.00;;;6.20;;
59824;SDS011;45703;50.898;6.054;2022-10-18T15:54:17;13.32;;;6.75;;
59824;SDS011;45703;50.898;6.054;2022-10-18T15:56:43;15.45;;;6.30;;
59824;SDS011;45703;50.898;6.054;2022-10-18T16:01:49;14.93;;;7.38;;
59824;SDS011;45703;50.898;6.054;2022-10-18T16:04:19;12.88;;;6.22;;
59824;SDS011;45703;50.898;6.054;2022-10-18T16:06:52;14.13;;;6.78;;
59824;SDS011;45703;50.898;6.054;2022-10-18T16:09:20;13.32;;;6.72;;
59824;SDS011;45703;50.898;6.054;2022-10-18T16:11:46;12.23;;;6.72;;
59824;SDS011;45703;50.898;6.054;2022-10-18T16:14:14;13.23;;;6.97;;
59824;SDS011;45703;50.898;6.054;2022-10-18T16:16:39;13.50;;;6.80;;
59824;SDS011;45703;50.898;6.054;2022-10-18T16:19:05;13.93;;;6.63;;
59824;SDS011;45703;50.898;6.054;2022-10-18T16:21:32;12.25;;;6.53;;
59824;SDS011;45703;50.898;6.054;2022-10-18T16:24:00;13.63;;;7.03;;
59824;SDS011;45703;50.898;6.054;2022-10-18T16:26:26;13.45;;;6.55;;
59824;SDS011;45703;50.898;6.054;2022-10-18T16:28:52;13.48;;;6.72;;
59824;SDS011;45703;50.898;6.054;2022-10-18T16:31:19;13.07;;;7.07;;
59824;SDS011;45703;50.898;6.054;2022-10-18T16:33:47;12.88;;;7.38;;
59824;SDS011;45703;50.898;6.054;2022-10-18T16:36:17;12.48;;;7.00;;
59824;SDS011;45703;50.898;6.054;2022-10-18T16:38:47;13.25;;;6.65;;
59824;SDS011;45703;50.898;6.054;2022-10-18T16:41:12;11.68;;;6.43;;
59824;SDS011;45703;50.898;6.054;2022-10-18T16:43:39;13.07;;;6.88;;
59824;SDS011;45703;50.898;6.054;2022-10-18T16:46:06;11.90;;;6.38;;
59824;SDS011;45703;50.898;6.054;2022-10-18T16:48:37;12.50;;;6.20;;
59824;SDS011;45703;50.898;6.054;2022-10-18T16:51:02;14.57;;;7.20;;
59824;SDS011;45703;50.898;6.054;2022-10-18T16:53:27;15.82;;;7.22;;
59824;SDS011;45703;50.898;6.054;2022-10-18T16:55:59;13.63;;;7.18;;
59824;SDS011;45703;50.898;6.054;2022-10-18T16:58:27;15.07;;;6.68;;
59824;SDS011;45703;50.898;6.054;2022-10-18T17:00:53;12.60;;;6.57;;
59824;SDS011;45703;50.898;6.054;2022-10-18T17:03:19;15.75;;;7.68;;
59824;SDS011;45703;50.898;6.054;2022-10-18T17:05:45;15.50;;;7.65;;
59824;SDS011;45703;50.898;6.054;2022-10-18T17:08:18;14.50;;;8.70;;
59824;SDS011;45703;50.898;6.054;2022-10-18T17:10:53;15.20;;;8.90;;
59824;SDS011;45703;50.898;6.054;2022-10-18T17:13:20;15.68;;;8.68;;
59824;SDS011;45703;50.898;6.054;2022-10-18T17:15:47;15.30;;;10.30;;
59824;SDS011;45703;50.898;6.054;2022-10-18T17:18:17;17.25;;;9.77;;
59824;SDS011;45703;50.898;6.054;2022-10-18T17:20:46;15.63;;;9.50;;
59824;SDS011;45703;50.898;6.054;2022-10-18T17:23:13;15.48;;;8.88;;
59824;SDS011;45703;50.898;6.054;2022-10-18T17:25:39;16.15;;;8.35;;
59824;SDS011;45703;50.898;6.054;2022-10-18T17:28:09;13.77;;;8.15;;
59824;SDS011;45703;50.898;6.054;2022-10-18T17:30:38;13.00;;;7.80;;
59824;SDS011;45703;50.898;6.054;2022-10-18T17:33:04;13.65;;;7.72;;
59824;SDS011;45703;50.898;6.054;2022-10-18T17:35:30;15.90;;;7.20;;
59824;SDS011;45703;50.898;6.054;2022-10-18T17:37:55;15.27;;;7.72;;
59824;SDS011;45703;50.898;6.054;2022-10-18T17:40:21;13.60;;;7.40;;